Airport View

Enter AWOS ICAO identifier for current METAR.

ex. KFNL

KFNL 261056Z AUTO 36006KT 10SM CLR 12/07 A3004 RMK AO2 SLP119 T01170072

26 Jun 2019 11:49

Frequency: 135.075

Phone: 970-669-9187

Other Area AWOS: KGXY - KLMO - KEIK - KBDU

TAF KBJC 260530Z 2606/2706 33010KT P6SM FEW100 SCT150 FM260800 25007KT P6SM FEW150 FM261500 VRB05KT P6SM FEW150 SCT220 FM262000 12011KT P6SM VCSH SCT090 BKN150 FM270100 16009KT P6SM FEW100 BKN150 FM270400 25007KT P6SM FEW150